createdAt,value
2018-10-16T00:00:14.131Z,99.90
2018-10-16T00:02:50.390Z,99.90
2018-10-16T00:05:19.277Z,99.90
2018-10-16T00:07:48.041Z,99.90
2018-10-16T00:10:21.881Z,99.90
2018-10-16T00:12:50.709Z,99.90
2018-10-16T00:15:19.761Z,99.90
2018-10-16T00:17:48.550Z,99.90
2018-10-16T00:20:17.330Z,99.90
2018-10-16T00:22:46.202Z,99.90
2018-10-16T00:25:16.884Z,99.90
2018-10-16T00:27:45.612Z,99.90
2018-10-16T00:30:14.456Z,99.90
2018-10-16T00:32:43.391Z,99.90
2018-10-16T00:35:12.101Z,99.90
2018-10-16T00:37:40.857Z,99.90
2018-10-16T00:40:10.568Z,99.90
2018-10-16T00:42:39.448Z,99.90
2018-10-16T00:45:10.434Z,99.90
2018-10-16T00:47:39.357Z,99.90
2018-10-16T00:50:08.445Z,99.90
2018-10-16T00:52:37.578Z,99.90
2018-10-16T00:55:07.457Z,99.90
2018-10-16T00:57:36.609Z,99.90
2018-10-16T01:00:05.623Z,99.90
2018-10-16T01:02:34.684Z,99.90
2018-10-16T01:05:03.518Z,99.90
2018-10-16T01:07:32.250Z,99.90
2018-10-16T01:10:01.119Z,99.90
2018-10-16T01:12:29.919Z,99.90
2018-10-16T01:15:05.447Z,99.90
2018-10-16T01:17:42.121Z,99.90
2018-10-16T01:20:16.520Z,99.90
2018-10-16T01:22:50.736Z,99.90
2018-10-16T01:25:24.904Z,99.90
2018-10-16T01:28:00.167Z,99.90
2018-10-16T01:30:34.697Z,99.90
2018-10-16T01:33:08.141Z,99.90
2018-10-16T01:35:42.406Z,99.90
2018-10-16T01:38:17.826Z,99.90
2018-10-16T01:40:52.111Z,99.90
2018-10-16T01:43:28.366Z,99.90
2018-10-16T01:46:01.809Z,99.90
2018-10-16T01:48:34.936Z,99.90
2018-10-16T01:51:09.834Z,99.90
2018-10-16T01:53:43.132Z,99.90
2018-10-16T01:56:17.417Z,99.90
2018-10-16T01:58:55.822Z,99.90
2018-10-16T02:01:36.981Z,99.90
2018-10-16T02:04:17.386Z,99.90
2018-10-16T02:06:50.885Z,99.90
2018-10-16T02:09:24.727Z,99.90
2018-10-16T02:11:57.111Z,99.90
2018-10-16T02:14:30.094Z,99.90
2018-10-16T02:17:03.051Z,99.90
2018-10-16T02:19:36.067Z,99.90
2018-10-16T02:22:05.110Z,99.90
2018-10-16T02:24:34.000Z,99.90
2018-10-16T02:27:02.765Z,99.90
2018-10-16T02:29:31.582Z,99.90
2018-10-16T02:32:00.362Z,99.90
2018-10-16T02:34:29.218Z,99.90
2018-10-16T02:36:58.013Z,99.90
2018-10-16T02:39:26.833Z,99.90
2018-10-16T02:41:55.537Z,99.90
2018-10-16T02:44:24.324Z,99.90
2018-10-16T02:46:53.108Z,99.90
2018-10-16T02:49:21.934Z,99.90
2018-10-16T02:51:50.722Z,99.90
2018-10-16T02:54:19.515Z,99.90
2018-10-16T02:56:48.365Z,99.90
2018-10-16T02:59:17.328Z,99.90
2018-10-16T03:01:46.213Z,99.90
2018-10-16T03:04:15.063Z,99.90
2018-10-16T03:06:43.948Z,99.90
2018-10-16T03:09:12.736Z,99.90
2018-10-16T03:11:41.449Z,99.90
2018-10-16T03:14:10.316Z,99.90
2018-10-16T03:16:39.164Z,99.90
2018-10-16T03:19:08.095Z,99.90
2018-10-16T03:21:36.843Z,99.90
2018-10-16T03:24:06.490Z,99.90
2018-10-16T03:26:35.226Z,99.90
2018-10-16T03:29:04.037Z,99.90
2018-10-16T03:31:32.920Z,99.90
2018-10-16T03:34:01.746Z,99.90
2018-10-16T03:36:30.579Z,99.90
2018-10-16T03:38:59.489Z,99.90
2018-10-16T03:41:28.263Z,99.90
2018-10-16T03:44:00.544Z,99.90
2018-10-16T03:46:29.976Z,99.90
2018-10-16T03:48:58.886Z,99.90
2018-10-16T03:51:27.743Z,99.90
2018-10-16T03:53:57.140Z,99.90
2018-10-16T03:56:26.650Z,99.90
2018-10-16T03:58:55.565Z,99.90
2018-10-16T04:01:25.770Z,99.90
2018-10-16T04:03:54.570Z,99.90
2018-10-16T04:06:23.773Z,99.90
2018-10-16T04:08:53.203Z,99.90
2018-10-16T04:11:22.062Z,99.90
2018-10-16T04:13:51.573Z,99.90
2018-10-16T04:16:20.568Z,99.90
2018-10-16T04:18:49.544Z,99.90
2018-10-16T04:21:18.305Z,99.90
2018-10-16T04:23:47.186Z,99.90
2018-10-16T04:26:16.113Z,99.90
2018-10-16T04:28:44.969Z,99.90
2018-10-16T04:31:13.840Z,99.90
2018-10-16T04:33:42.754Z,99.90
2018-10-16T04:36:11.561Z,99.90
2018-10-16T04:38:40.398Z,99.90
2018-10-16T04:41:09.403Z,99.90
2018-10-16T04:43:39.505Z,99.90
2018-10-16T04:46:08.293Z,99.90
2018-10-16T04:48:37.119Z,99.90
2018-10-16T04:51:06.159Z,99.90
2018-10-16T04:53:35.023Z,99.90
2018-10-16T04:56:03.828Z,99.90
2018-10-16T04:58:32.653Z,99.90
2018-10-16T05:01:01.629Z,99.90
2018-10-16T05:03:30.555Z,99.90
2018-10-16T05:05:59.552Z,99.90
2018-10-16T05:08:28.374Z,99.90
2018-10-16T05:10:57.193Z,99.90
2018-10-16T05:13:26.308Z,99.90
2018-10-16T05:15:55.058Z,99.90
2018-10-16T05:18:23.986Z,99.90
2018-10-16T05:20:52.766Z,99.90
2018-10-16T05:23:21.622Z,99.90
2018-10-16T05:25:50.485Z,99.90
2018-10-16T05:28:19.292Z,99.90
2018-10-16T05:30:48.022Z,99.90
2018-10-16T05:33:16.886Z,99.90
2018-10-16T05:35:46.267Z,99.90
2018-10-16T05:38:15.560Z,99.90
2018-10-16T05:40:44.401Z,99.90
2018-10-16T05:43:13.253Z,99.90
2018-10-16T05:45:44.250Z,99.90
2018-10-16T05:48:13.229Z,99.90
2018-10-16T05:50:42.302Z,99.90
2018-10-16T05:53:11.158Z,99.90
2018-10-16T05:55:40.129Z,99.90
2018-10-16T05:58:09.115Z,99.90
2018-10-16T06:00:46.882Z,99.90
2018-10-16T06:03:15.761Z,99.90
2018-10-16T06:05:45.109Z,99.90
2018-10-16T06:08:14.032Z,99.90
2018-10-16T06:10:43.044Z,99.90
2018-10-16T06:13:11.866Z,99.90
2018-10-16T06:15:40.900Z,99.90
2018-10-16T06:18:09.789Z,99.90
2018-10-16T06:20:38.745Z,99.90
2018-10-16T06:23:07.565Z,99.90
2018-10-16T06:25:36.562Z,99.90
2018-10-16T06:28:15.698Z,99.90
2018-10-16T06:30:44.590Z,99.90
2018-10-16T06:33:13.992Z,99.90
2018-10-16T06:35:42.800Z,99.90
2018-10-16T06:38:11.795Z,99.90
2018-10-16T06:40:40.865Z,99.90
2018-10-16T06:43:09.761Z,99.90
2018-10-16T06:45:38.749Z,99.90
2018-10-16T06:48:08.702Z,99.90
2018-10-16T06:50:37.834Z,99.90
2018-10-16T06:53:06.971Z,99.90
2018-10-16T06:55:36.496Z,99.90
2018-10-16T06:58:06.097Z,99.90
2018-10-16T07:00:35.246Z,99.90
2018-10-16T07:03:04.320Z,99.90
2018-10-16T07:05:33.358Z,99.90
2018-10-16T07:08:02.917Z,99.90
2018-10-16T07:10:32.299Z,99.90
2018-10-16T07:13:01.423Z,99.90
2018-10-16T07:15:30.442Z,99.90
2018-10-16T07:17:59.582Z,99.90
2018-10-16T07:20:29.374Z,99.90
2018-10-16T07:22:58.367Z,99.90
2018-10-16T07:25:27.764Z,99.90
2018-10-16T07:27:57.249Z,99.90
2018-10-16T07:30:26.637Z,99.90
2018-10-16T07:32:55.649Z,99.90
2018-10-16T07:35:24.791Z,99.90
2018-10-16T07:37:54.934Z,99.90
2018-10-16T07:40:24.234Z,99.90
2018-10-16T07:42:55.249Z,99.90
2018-10-16T07:45:24.005Z,99.90
2018-10-16T07:47:52.929Z,99.90
2018-10-16T07:50:22.118Z,99.90
2018-10-16T07:52:50.917Z,99.90
2018-10-16T07:55:20.696Z,99.90
2018-10-16T07:57:50.691Z,99.90
2018-10-16T08:00:20.550Z,99.90
2018-10-16T08:02:49.683Z,99.90
2018-10-16T08:05:18.625Z,99.40
2018-10-16T08:07:47.761Z,99.00
2018-10-16T08:10:17.010Z,97.80
2018-10-16T08:12:51.914Z,93.70
2018-10-16T08:15:20.894Z,85.30
2018-10-16T08:17:50.403Z,71.70
2018-10-16T08:20:19.277Z,62.50
2018-10-16T08:22:48.437Z,57.50
2018-10-16T08:25:17.405Z,53.60
2018-10-16T08:27:46.528Z,49.90
2018-10-16T08:30:15.631Z,44.60
2018-10-16T08:32:44.493Z,41.60
2018-10-16T08:35:13.461Z,38.40
2018-10-16T08:39:50.888Z,36.20
2018-10-16T08:42:43.495Z,34.10
2018-10-16T08:45:23.631Z,32.30
2018-10-16T08:48:04.034Z,30.20
2018-10-16T08:50:45.517Z,28.10
2018-10-16T08:53:22.027Z,26.60
2018-10-16T08:55:51.006Z,25.70
2018-10-16T08:58:20.038Z,24.20
2018-10-16T09:00:49.049Z,22.60
2018-10-16T09:03:18.368Z,22.10
2018-10-16T09:05:47.296Z,21.10
2018-10-16T09:08:16.420Z,21.10
2018-10-16T09:10:45.697Z,21.20
2018-10-16T09:13:18.379Z,20.40
2018-10-16T09:15:49.135Z,19.90
2018-10-16T09:18:18.294Z,19.50
2018-10-16T09:20:47.072Z,19.10
2018-10-16T09:23:16.056Z,18.60
2018-10-16T09:25:45.139Z,18.80
2018-10-16T09:28:16.056Z,18.30
2018-10-16T09:30:45.222Z,19.40
2018-10-16T09:33:14.264Z,19.50
2018-10-16T09:35:43.298Z,18.60
2018-10-16T09:38:12.772Z,17.90
2018-10-16T09:40:41.945Z,16.60
2018-10-16T09:43:11.335Z,16.40
2018-10-16T09:45:40.197Z,17.00
2018-10-16T09:48:09.313Z,16.20
2018-10-16T09:50:38.412Z,15.60
2018-10-16T09:53:08.128Z,15.50
2018-10-16T09:55:36.954Z,15.20
2018-10-16T09:58:08.153Z,16.30
2018-10-16T10:00:44.733Z,16.10
2018-10-16T10:03:13.721Z,15.70
2018-10-16T10:05:42.505Z,15.50
2018-10-16T10:08:11.325Z,15.60
2018-10-16T10:10:40.095Z,15.40
2018-10-16T10:13:12.993Z,14.90
2018-10-16T10:15:42.144Z,15.30
2018-10-16T10:18:11.319Z,14.70
2018-10-16T10:20:40.235Z,14.80
2018-10-16T10:23:09.204Z,14.40
2018-10-16T10:25:38.133Z,13.80
2018-10-16T10:28:07.035Z,14.20
2018-10-16T10:30:35.866Z,13.70
2018-10-16T10:33:04.827Z,13.10
2018-10-16T10:35:33.855Z,12.90
2018-10-16T10:38:02.577Z,13.60
2018-10-16T10:40:31.600Z,12.30
2018-10-16T10:43:00.518Z,12.40
2018-10-16T10:45:29.527Z,12.60
2018-10-16T10:47:58.589Z,12.70
2018-10-16T10:50:27.578Z,12.90
2018-10-16T10:52:56.477Z,12.40
2018-10-16T10:55:25.502Z,13.10
2018-10-16T10:57:54.359Z,12.20
2018-10-16T11:00:23.285Z,12.40
2018-10-16T11:02:52.253Z,11.80
2018-10-16T11:05:21.160Z,12.60
2018-10-16T11:07:50.187Z,12.60
2018-10-16T11:10:19.043Z,12.20
2018-10-16T11:12:48.018Z,12.40
2018-10-16T11:15:16.999Z,13.00
2018-10-16T11:17:45.953Z,12.40
2018-10-16T11:20:14.810Z,12.20
2018-10-16T11:22:44.241Z,11.70
2018-10-16T11:25:13.170Z,11.70
2018-10-16T11:27:41.939Z,11.50
2018-10-16T11:30:13.537Z,12.10
2018-10-16T11:32:42.611Z,14.50
2018-10-16T11:35:12.945Z,16.70
2018-10-16T11:37:41.917Z,18.50
2018-10-16T11:40:11.417Z,20.20
2018-10-16T11:42:41.056Z,22.70
2018-10-16T11:45:10.197Z,22.70
2018-10-16T11:47:39.629Z,24.20
2018-10-16T11:50:10.639Z,24.30
2018-10-16T11:52:41.149Z,25.80
2018-10-16T11:55:10.382Z,27.20
2018-10-16T11:57:39.347Z,28.50
2018-10-16T12:00:13.337Z,27.60
2018-10-16T12:02:42.307Z,27.50
2018-10-16T12:05:11.556Z,27.20
2018-10-16T12:07:40.335Z,27.50
2018-10-16T12:10:09.380Z,29.30
2018-10-16T12:12:38.611Z,30.20
2018-10-16T12:15:07.879Z,30.00
2018-10-16T12:18:14.029Z,30.30
2018-10-16T12:20:52.494Z,31.80
2018-10-16T12:26:22.462Z,32.60
2018-10-16T12:29:01.592Z,31.60
2018-10-16T12:31:30.942Z,32.00
2018-10-16T12:33:59.839Z,33.80
2018-10-16T12:36:30.036Z,33.10
2018-10-16T12:38:58.885Z,34.50
2018-10-16T12:41:27.847Z,34.10
2018-10-16T12:43:57.453Z,34.50
2018-10-16T12:46:26.884Z,34.60
2018-10-16T12:48:56.253Z,34.60
2018-10-16T12:51:26.316Z,33.50
2018-10-16T12:53:55.697Z,33.30
2018-10-16T12:56:25.409Z,33.90
2018-10-16T12:58:54.483Z,34.60
2018-10-16T13:01:23.307Z,35.40
2018-10-16T13:03:52.241Z,35.70
2018-10-16T13:06:21.147Z,34.70
2018-10-16T13:08:50.193Z,35.00
2018-10-16T13:11:19.154Z,35.20
2018-10-16T13:13:48.094Z,35.60
2018-10-16T13:16:17.002Z,36.50
2018-10-16T13:18:46.038Z,36.00
2018-10-16T13:21:15.063Z,35.00
2018-10-16T13:23:45.071Z,35.60
2018-10-16T13:26:13.914Z,36.70
2018-10-16T13:28:42.803Z,36.00
2018-10-16T13:31:11.725Z,36.80
2018-10-16T13:33:40.650Z,36.70
2018-10-16T13:36:09.556Z,36.30
2018-10-16T13:38:38.498Z,35.80
2018-10-16T13:41:07.270Z,33.80
2018-10-16T13:43:36.518Z,33.70
2018-10-16T13:46:05.917Z,32.80
2018-10-16T13:48:34.777Z,33.30
2018-10-16T13:51:03.967Z,34.60
2018-10-16T13:53:33.163Z,33.00
2018-10-16T13:56:01.991Z,33.00
2018-10-16T13:58:30.898Z,34.10
2018-10-16T14:01:00.073Z,33.90
2018-10-16T14:03:29.578Z,35.90
2018-10-16T14:05:58.624Z,34.90
2018-10-16T14:08:27.409Z,35.20
2018-10-16T14:10:56.297Z,35.00
2018-10-16T14:13:25.075Z,34.40
2018-10-16T14:15:54.081Z,34.60
2018-10-16T14:18:22.914Z,35.60
2018-10-16T14:20:51.704Z,38.20
2018-10-16T14:23:37.052Z,36.00
2018-10-16T14:26:06.530Z,35.50
2018-10-16T14:28:35.493Z,34.80
2018-10-16T14:31:04.445Z,34.90
2018-10-16T14:33:34.051Z,34.60
2018-10-16T14:36:03.128Z,35.50
2018-10-16T14:38:32.246Z,34.50
2018-10-16T14:41:03.020Z,35.80
2018-10-16T14:43:32.415Z,37.10
2018-10-16T14:46:02.011Z,38.60
2018-10-16T14:48:30.813Z,37.00
2018-10-16T14:50:59.687Z,37.00
2018-10-16T14:53:28.560Z,37.00
2018-10-16T14:55:57.224Z,35.90
2018-10-16T14:58:26.054Z,35.50
2018-10-16T15:00:54.988Z,36.20
2018-10-16T15:03:23.905Z,36.40
2018-10-16T15:05:52.709Z,36.20
2018-10-16T15:08:21.556Z,36.40
2018-10-16T15:10:50.537Z,36.40
2018-10-16T15:13:20.062Z,36.60
2018-10-16T15:15:48.839Z,36.00
2018-10-16T15:18:17.713Z,36.70
2018-10-16T15:20:46.837Z,36.90
2018-10-16T15:23:16.125Z,36.00
2018-10-16T15:25:45.357Z,37.60
2018-10-16T15:28:14.302Z,38.20
2018-10-16T15:30:43.269Z,38.80
2018-10-16T15:33:12.254Z,38.20
2018-10-16T15:35:41.227Z,38.80
2018-10-16T15:38:10.238Z,39.10
2018-10-16T15:40:39.506Z,40.60
2018-10-16T15:43:08.761Z,40.60
2018-10-16T15:45:37.673Z,41.30
2018-10-16T15:48:06.721Z,41.50
2018-10-16T15:50:35.602Z,42.00
2018-10-16T15:53:04.442Z,43.50
2018-10-16T15:55:33.332Z,43.00
2018-10-16T15:58:02.184Z,43.60
2018-10-16T16:00:30.945Z,44.30
2018-10-16T16:02:59.854Z,45.20
2018-10-16T16:05:28.685Z,46.20
2018-10-16T16:07:57.656Z,46.70
2018-10-16T16:10:26.462Z,48.00
2018-10-16T16:12:55.369Z,49.00
2018-10-16T16:15:24.172Z,50.10
2018-10-16T16:17:53.074Z,50.70
2018-10-16T16:20:21.901Z,51.10
2018-10-16T16:22:50.686Z,52.30
2018-10-16T16:25:19.574Z,52.20
2018-10-16T16:27:48.426Z,52.00
2018-10-16T16:30:17.408Z,52.60
2018-10-16T16:32:46.300Z,52.80
2018-10-16T16:35:15.093Z,53.20
2018-10-16T16:37:43.933Z,54.20
2018-10-16T16:40:14.127Z,54.90
2018-10-16T16:42:42.931Z,55.60
2018-10-16T16:45:12.282Z,56.30
2018-10-16T16:47:41.037Z,57.40
2018-10-16T16:50:11.108Z,58.30
2018-10-16T16:52:41.434Z,59.30
2018-10-16T16:55:12.151Z,60.10
2018-10-16T16:57:40.985Z,61.60
2018-10-16T17:00:11.308Z,62.40
2018-10-16T17:02:41.241Z,63.40
2018-10-16T17:05:11.161Z,64.40
2018-10-16T17:07:40.660Z,66.10
2018-10-16T17:10:09.736Z,66.70
2018-10-16T17:12:39.204Z,68.70
2018-10-16T17:15:10.070Z,68.90
2018-10-16T17:17:39.009Z,71.00
2018-10-16T17:20:08.656Z,70.80
2018-10-16T17:22:37.608Z,72.40
2018-10-16T17:25:07.658Z,72.50
2018-10-16T17:27:36.502Z,74.10
2018-10-16T17:30:07.140Z,74.30
2018-10-16T17:32:36.019Z,74.00
2018-10-16T17:35:05.250Z,74.90
2018-10-16T17:37:34.117Z,75.80
2018-10-16T17:40:03.101Z,76.30
2018-10-16T17:42:32.109Z,76.90
2018-10-16T17:45:01.224Z,78.60
2018-10-16T17:47:30.011Z,79.60
2018-10-16T17:49:59.097Z,79.40
2018-10-16T17:52:28.096Z,81.10
2018-10-16T17:54:57.040Z,82.30
2018-10-16T17:57:25.917Z,82.80
2018-10-16T17:59:58.570Z,83.90
2018-10-16T18:02:27.442Z,83.80
2018-10-16T18:04:56.356Z,84.40
2018-10-16T18:07:25.321Z,86.20
2018-10-16T18:09:54.174Z,85.90
2018-10-16T18:12:22.979Z,86.80
2018-10-16T18:14:51.814Z,87.20
2018-10-16T18:17:20.557Z,87.60
2018-10-16T18:19:49.365Z,88.30
2018-10-16T18:22:18.046Z,87.10
2018-10-16T18:24:46.881Z,87.70
2018-10-16T18:27:15.774Z,88.80
2018-10-16T18:29:44.782Z,88.20
2018-10-16T18:32:13.614Z,87.70
2018-10-16T18:34:42.419Z,87.00
2018-10-16T18:37:11.310Z,88.00
2018-10-16T18:39:40.200Z,87.60
2018-10-16T18:42:09.163Z,87.90
2018-10-16T18:44:38.081Z,88.90
2018-10-16T18:47:07.131Z,89.20
2018-10-16T18:49:35.985Z,90.00
2018-10-16T18:52:05.628Z,90.10
2018-10-16T18:54:35.233Z,90.00
2018-10-16T18:57:05.023Z,90.20
2018-10-16T18:59:34.419Z,90.40
2018-10-16T19:02:06.733Z,90.80
2018-10-16T19:04:36.021Z,90.70
2018-10-16T19:07:05.431Z,91.00
2018-10-16T19:09:34.314Z,90.70
2018-10-16T19:12:03.502Z,91.00
2018-10-16T19:14:32.337Z,91.20
2018-10-16T19:17:01.674Z,91.50
2018-10-16T19:19:30.573Z,91.90
2018-10-16T19:21:59.468Z,91.90
2018-10-16T19:24:28.593Z,92.10
2018-10-16T19:26:57.499Z,92.30
2018-10-16T19:29:26.568Z,92.60
2018-10-16T19:31:55.344Z,92.60
2018-10-16T19:34:24.246Z,92.70
2018-10-16T19:36:53.285Z,92.80
2018-10-16T19:39:22.030Z,93.20
2018-10-16T19:41:50.857Z,93.00
2018-10-16T19:44:19.689Z,92.90
2018-10-16T19:46:48.524Z,92.90
2018-10-16T19:49:17.504Z,93.10
2018-10-16T19:51:46.424Z,93.20
2018-10-16T19:54:15.330Z,93.30
2018-10-16T19:56:44.110Z,93.60
2018-10-16T19:59:12.934Z,94.10
2018-10-16T20:01:41.845Z,94.40
2018-10-16T20:04:10.699Z,94.20
2018-10-16T20:06:49.356Z,94.40
2018-10-16T20:09:22.165Z,94.50
2018-10-16T20:11:51.164Z,94.40
2018-10-16T20:14:20.170Z,94.30
2018-10-16T20:16:49.120Z,94.20
2018-10-16T20:19:18.058Z,94.50
2018-10-16T20:21:46.882Z,94.80
2018-10-16T20:24:15.824Z,95.00
2018-10-16T20:26:44.644Z,94.80
2018-10-16T20:29:13.527Z,95.00
2018-10-16T20:31:42.434Z,95.10
2018-10-16T20:34:11.213Z,95.40
2018-10-16T20:36:40.086Z,95.60
2018-10-16T20:39:11.461Z,95.50
2018-10-16T20:41:40.696Z,95.90
2018-10-16T20:44:09.577Z,95.80
2018-10-16T20:46:38.536Z,96.20
2018-10-16T20:49:07.493Z,96.50
2018-10-16T20:51:37.040Z,96.50
2018-10-16T20:54:06.206Z,96.50
2018-10-16T20:56:35.133Z,96.60
2018-10-16T20:59:03.993Z,96.50
2018-10-16T21:01:32.751Z,96.70
2018-10-16T21:04:01.638Z,96.70
2018-10-16T21:06:30.698Z,96.60
2018-10-16T21:08:59.251Z,96.90
2018-10-16T21:11:28.296Z,97.20
2018-10-16T21:13:57.240Z,97.40
2018-10-16T21:16:26.266Z,97.60
2018-10-16T21:18:55.170Z,97.70
2018-10-16T21:21:24.107Z,97.70
2018-10-16T21:23:53.021Z,97.80
2018-10-16T21:26:22.036Z,98.10
2018-10-16T21:28:50.885Z,98.00
2018-10-16T21:31:19.633Z,98.00
2018-10-16T21:33:48.590Z,98.30
2018-10-16T21:36:17.345Z,98.60
2018-10-16T21:38:46.205Z,98.60
2018-10-16T21:41:15.045Z,98.60
2018-10-16T21:43:43.981Z,98.50
2018-10-16T21:46:12.836Z,98.30
2018-10-16T21:48:41.660Z,98.50
2018-10-16T21:51:11.296Z,98.70
2018-10-16T21:53:40.297Z,98.80
2018-10-16T21:56:09.120Z,98.80
2018-10-16T21:58:37.919Z,98.90
2018-10-16T22:01:09.532Z,99.10
2018-10-16T22:03:38.769Z,99.00
2018-10-16T22:06:07.659Z,99.00
2018-10-16T22:08:36.600Z,99.00
2018-10-16T22:11:06.128Z,99.10
2018-10-16T22:13:34.909Z,99.50
2018-10-16T22:16:03.759Z,99.70
2018-10-16T22:18:32.848Z,99.70
2018-10-16T22:21:01.612Z,99.90
2018-10-16T22:23:30.462Z,99.90
2018-10-16T22:25:59.306Z,99.90
2018-10-16T22:28:28.153Z,99.90
2018-10-16T22:30:57.050Z,99.90
2018-10-16T22:33:25.955Z,99.90
2018-10-16T22:35:54.742Z,99.90
2018-10-16T22:38:23.422Z,99.90
2018-10-16T22:40:52.331Z,99.90
2018-10-16T22:43:21.169Z,99.90
2018-10-16T22:45:50.042Z,99.90
2018-10-16T22:48:18.860Z,99.90
2018-10-16T22:50:47.672Z,99.90
2018-10-16T22:53:16.548Z,99.90
2018-10-16T22:55:45.382Z,99.90
2018-10-16T22:58:14.276Z,99.90
2018-10-16T23:00:43.321Z,99.90
2018-10-16T23:03:12.105Z,99.90
2018-10-16T23:05:40.898Z,99.90
2018-10-16T23:08:09.794Z,99.90
2018-10-16T23:10:38.724Z,99.90
2018-10-16T23:13:08.422Z,99.90
2018-10-16T23:15:37.291Z,99.90
2018-10-16T23:18:06.296Z,99.90
2018-10-16T23:20:35.226Z,99.90
2018-10-16T23:23:04.022Z,99.90
2018-10-16T23:25:32.805Z,99.90
2018-10-16T23:28:01.694Z,99.90
2018-10-16T23:30:30.876Z,99.90
2018-10-16T23:32:59.682Z,99.90
2018-10-16T23:35:28.554Z,99.90
2018-10-16T23:37:57.649Z,99.90
2018-10-16T23:40:26.610Z,99.90
2018-10-16T23:42:55.466Z,99.90
2018-10-16T23:45:24.278Z,99.90
2018-10-16T23:47:53.134Z,99.90
2018-10-16T23:50:21.957Z,99.90
2018-10-16T23:52:50.968Z,99.90
2018-10-16T23:55:19.696Z,99.90
2018-10-16T23:57:48.494Z,99.90
